Time;durP1;ratioP1;P1;durP2;ratioP2;P2;SDS_P1;SDS_P2;PMS_P1;PMS_P2;Temp;Humidity;BMP_temperature;BMP_pressure;BME280_temperature;BME280_humidity;BME280_pressure;Samples;Min_cycle;Max_cycle;Signal;HPM_P1;HPM_P2
2022/02/03 00:00:23;;;;;;;1.33;1.27;;;6.10;98.00;;;;;;5112092;28;20455;-67
2022/02/03 00:03:05;;;;;;;2.47;1.80;;;6.10;98.00;;;;;;5111874;28;20498;-67
2022/02/03 00:05:44;;;;;;;1.50;1.40;;;6.00;98.00;;;;;;5112015;28;20448;-67
2022/02/03 00:08:18;;;;;;;4.57;2.27;;;6.00;98.00;;;;;;5110314;28;20465;-68
2022/02/03 00:11:13;;;;;;;1.70;1.13;;;6.10;98.00;;;;;;5111749;28;20463;-67
2022/02/03 00:16:46;;;;;;;3.13;2.23;;;6.20;98.00;;;;;;5111550;28;20838;-68
2022/02/03 00:22:14;;;;;;;2.60;2.40;;;6.00;98.00;;;;;;5111711;28;20442;-67
2022/02/03 00:25:02;;;;;;;1.40;1.20;;;6.00;98.00;;;;;;5111525;28;20462;-66
2022/02/03 00:30:22;;;;;;;1.20;1.10;;;6.00;98.00;;;;;;5107456;28;20465;-67
2022/02/03 00:33:13;;;;;;;1.10;1.00;;;6.10;98.00;;;;;;5112959;28;20467;-68
2022/02/03 00:35:57;;;;;;;2.50;1.43;;;6.10;98.00;;;;;;5114845;28;20457;-67
2022/02/03 00:48:14;;;;;;;1.90;1.80;;;6.10;98.00;;;;;;5114976;28;20502;-67
2022/02/03 00:49:55;;;;;;;1.83;1.37;;;6.10;98.00;;;;;;5114050;28;20454;-69
2022/02/03 00:52:25;;;;;;;1.10;1.10;;;6.10;98.00;;;;;;5114102;28;20855;-67
2022/02/03 00:54:52;;;;;;;1.20;1.20;;;6.10;98.00;;;;;;5113934;28;20500;-67
2022/02/03 00:57:34;;;;;;;1.50;1.47;;;6.10;98.00;;;;;;5113720;28;20580;-68
2022/02/03 01:00:06;;;;;;;1.10;1.10;;;6.20;98.00;;;;;;5114110;28;20455;-68
2022/02/03 01:02:36;;;;;;;1.70;1.60;;;6.30;98.00;;;;;;5113943;28;20885;-68
2022/02/03 01:05:04;;;;;;;4.70;2.10;;;6.20;98.00;;;;;;5113621;28;20915;-67
2022/02/03 01:07:35;;;;;;;1.40;1.30;;;6.20;98.00;;;;;;5113469;28;20499;-66
2022/02/03 01:10:08;;;;;;;2.03;1.27;;;6.20;98.00;;;;;;5113716;28;20490;-66
2022/02/03 01:12:43;;;;;;;1.63;1.57;;;6.30;98.00;;;;;;5113766;28;20492;-67
2022/02/03 01:15:21;;;;;;;1.70;1.60;;;6.40;98.00;;;;;;5113374;28;20539;-67
2022/02/03 01:17:57;;;;;;;1.77;1.67;;;6.40;98.00;;;;;;5113609;28;20882;-68
2022/02/03 01:20:57;;;;;;;1.30;1.23;;;6.40;98.00;;;;;;5113466;28;20543;-68
2022/02/03 01:34:44;;;;;;;1.10;1.10;;;6.30;98.00;;;;;;5113275;28;20873;-67
2022/02/03 01:37:35;;;;;;;1.10;1.00;;;6.20;98.00;;;;;;5112907;28;20489;-66
2022/02/03 01:45:54;;;;;;;1.10;1.03;;;6.30;98.00;;;;;;5113014;28;20810;-67
2022/02/03 01:48:35;;;;;;;1.23;1.20;;;6.40;98.00;;;;;;5112984;28;20777;-67
2022/02/03 01:53:49;;;;;;;2.80;1.77;;;6.50;98.00;;;;;;5113148;28;20536;-67
2022/02/03 01:56:20;;;;;;;1.67;1.57;;;6.40;98.00;;;;;;5112605;28;20487;-68
2022/02/03 01:58:55;;;;;;;1.20;1.10;;;6.40;98.00;;;;;;5112714;28;20546;-68
2022/02/03 02:01:26;;;;;;;1.10;1.00;;;6.40;98.00;;;;;;5112508;28;20803;-67
2022/02/03 02:04:02;;;;;;;1.20;1.20;;;6.40;98.00;;;;;;5112588;28;21107;-67
2022/02/03 02:07:20;;;;;;;1.17;1.10;;;6.30;98.00;;;;;;5112450;28;20554;-68
2022/02/03 02:10:11;;;;;;;1.43;1.10;;;6.30;98.00;;;;;;5049084;28;20998;-66
2022/02/03 02:12:57;;;;;;;1.10;1.10;;;6.20;98.00;;;;;;5049178;28;20552;-67
2022/02/03 02:37:57;;;;;;;2.17;1.50;;;6.70;98.00;;;;;;5112041;28;20477;-66
2022/02/03 02:43:32;;;;;;;1.20;1.17;;;6.60;98.00;;;;;;5053994;28;20983;-68
2022/02/03 02:46:07;;;;;;;1.40;1.30;;;6.40;98.00;;;;;;5111888;28;20473;-67
2022/02/03 02:48:48;;;;;;;1.53;1.47;;;6.30;98.00;;;;;;5112088;28;20479;-67
2022/02/03 02:51:27;;;;;;;1.20;1.20;;;6.20;98.00;;;;;;5112027;28;20515;-67
2022/02/03 02:54:14;;;;;;;1.60;1.40;;;6.20;98.00;;;;;;5112009;28;20471;-68
2022/02/03 02:57:05;;;;;;;4.00;1.57;;;6.20;98.00;;;;;;5111207;28;20485;-68
2022/02/03 03:00:04;;;;;;;1.50;1.40;;;6.20;98.00;;;;;;5111790;28;20464;-66
2022/02/03 03:03:01;;;;;;;2.53;1.30;;;6.30;98.00;;;;;;5111613;28;20530;-67
2022/02/03 03:30:33;;;;;;;1.40;1.37;;;6.30;98.00;;;;;;5089489;28;20455;-67
2022/02/03 03:33:11;;;;;;;1.77;1.70;;;6.40;98.00;;;;;;5111302;28;20460;-67
2022/02/03 03:35:45;;;;;;;1.10;1.00;;;6.40;98.00;;;;;;5111256;28;20460;-66
2022/02/03 03:38:18;;;;;;;2.70;1.50;;;6.50;98.00;;;;;;5111103;28;20483;-67
2022/02/03 03:40:49;;;;;;;1.40;1.30;;;6.50;98.00;;;;;;5111246;28;20457;-68
2022/02/03 03:43:28;;;;;;;2.00;1.90;;;6.40;98.00;;;;;;5111286;28;20458;-67
2022/02/03 03:45:56;;;;;;;2.70;1.73;;;6.40;98.00;;;;;;5111068;28;20802;-67
2022/02/03 03:48:31;;;;;;;2.23;1.73;;;6.40;98.00;;;;;;5111098;28;20457;-68
2022/02/03 03:51:03;;;;;;;2.77;2.00;;;6.40;98.00;;;;;;5111078;28;20549;-66
2022/02/03 03:53:41;;;;;;;1.17;1.13;;;6.30;98.00;;;;;;5111116;28;20825;-65
2022/02/03 03:56:19;;;;;;;1.50;1.50;;;6.30;98.00;;;;;;5111019;28;20857;-65
2022/02/03 03:59:20;;;;;;;1.27;1.20;;;6.30;98.00;;;;;;5111416;28;20481;-65
2022/02/03 04:37:23;;;;;;;1.83;1.30;;;6.50;98.00;;;;;;5113746;28;20456;-64
2022/02/03 04:50:45;;;;;;;1.10;1.10;;;6.60;98.00;;;;;;5077643;28;20461;-64
2022/02/03 04:55:30;;;;;;;1.77;1.50;;;6.50;98.00;;;;;;5114712;28;20447;-64
2022/02/03 05:01:36;;;;;;;1.10;1.03;;;6.40;98.00;;;;;;5114356;28;20665;-64
2022/02/03 05:04:29;;;;;;;1.70;1.60;;;6.40;98.00;;;;;;5114372;28;20444;-65
2022/02/03 05:07:39;;;;;;;1.20;1.10;;;6.40;98.00;;;;;;5114556;28;20807;-64
2022/02/03 05:10:56;;;;;;;1.50;1.23;;;6.40;98.00;;;;;;5114385;28;20500;-65
2022/02/03 05:14:08;;;;;;;1.50;1.33;;;6.40;98.00;;;;;;5114472;28;20453;-65
2022/02/03 05:17:00;;;;;;;1.10;1.03;;;6.40;98.00;;;;;;5113969;28;20808;-64
2022/02/03 05:20:13;;;;;;;3.00;2.80;;;6.40;98.00;;;;;;5113923;28;20823;-64
2022/02/03 05:26:31;;;;;;;1.13;1.00;;;6.50;98.00;;;;;;5114218;28;20445;-66
2022/02/03 05:32:53;;;;;;;1.73;1.20;;;6.40;98.00;;;;;;5088950;28;20455;-65
2022/02/03 05:44:26;;;;;;;1.50;1.40;;;6.30;98.00;;;;;;5114036;28;20443;-65
2022/02/03 05:50:16;;;;;;;1.10;1.10;;;6.20;98.00;;;;;;5111539;28;20455;-64
2022/02/03 05:54:32;;;;;;;1.40;1.30;;;6.20;98.00;;;;;;5113712;28;20465;-66
2022/02/03 06:04:13;;;;;;;1.20;1.17;;;6.10;98.00;;;;;;5111012;28;21024;-64
2022/02/03 06:09:57;;;;;;;2.40;1.60;;;6.20;98.00;;;;;;5087833;28;20448;-65
2022/02/03 06:12:49;;;;;;;1.50;1.47;;;6.30;98.00;;;;;;5113161;28;20459;-64
2022/02/03 06:15:23;;;;;;;1.33;1.10;;;6.30;98.00;;;;;;5113116;27;20818;-65
2022/02/03 06:23:55;;;;;;;1.80;1.70;;;6.30;98.00;;;;;;5112157;28;20452;-65
2022/02/03 06:29:10;;;;;;;1.30;1.17;;;6.30;98.00;;;;;;5113033;28;20574;-65
2022/02/03 06:31:41;;;;;;;1.37;1.37;;;6.10;98.00;;;;;;5112041;28;20450;-64
2022/02/03 06:34:09;;;;;;;2.03;1.63;;;6.00;98.00;;;;;;5112803;28;20458;-65
2022/02/03 06:36:37;;;;;;;2.90;1.47;;;5.90;98.00;;;;;;5112905;28;20464;-64
2022/02/03 06:39:12;;;;;;;1.60;1.23;;;5.90;98.00;;;;;;5112769;28;20570;-65
2022/02/03 06:41:39;;;;;;;1.30;1.20;;;5.90;98.00;;;;;;5112703;28;20883;-65
2022/02/03 06:44:06;;;;;;;1.83;1.57;;;5.90;98.00;;;;;;5112880;28;20858;-64
2022/02/03 06:46:34;;;;;;;1.10;1.00;;;5.90;98.00;;;;;;5112724;28;20512;-65
2022/02/03 06:49:12;;;;;;;1.10;0.90;;;5.90;98.00;;;;;;5111519;28;20536;-64
2022/02/03 06:51:47;;;;;;;1.63;1.53;;;5.90;98.00;;;;;;5112561;28;20998;-64
2022/02/03 06:54:21;;;;;;;1.80;1.70;;;5.90;98.00;;;;;;5111502;28;20475;-65
2022/02/03 06:56:54;;;;;;;1.20;1.10;;;5.90;98.00;;;;;;5112425;28;20493;-66
2022/02/03 06:59:28;;;;;;;1.10;1.00;;;5.90;98.00;;;;;;5112615;28;20541;-64
2022/02/03 07:01:55;;;;;;;1.30;1.27;;;5.90;98.00;;;;;;5112682;28;20462;-64
2022/02/03 07:04:27;;;;;;;2.40;1.80;;;5.90;98.00;;;;;;5112641;28;20529;-64
2022/02/03 07:06:54;;;;;;;1.70;1.60;;;6.10;98.00;;;;;;5112216;28;20461;-64
2022/02/03 07:09:21;;;;;;;1.10;1.00;;;6.10;98.00;;;;;;5112348;28;20466;-64
2022/02/03 07:11:48;;;;;;;1.40;1.40;;;6.10;98.00;;;;;;5111348;28;20463;-65
2022/02/03 07:14:15;;;;;;;1.10;1.00;;;6.20;98.00;;;;;;5112144;28;20458;-64
2022/02/03 07:16:48;;;;;;;1.10;1.00;;;6.20;98.00;;;;;;5112195;28;20931;-64
2022/02/03 07:19:17;;;;;;;1.10;1.10;;;6.40;98.00;;;;;;5111916;28;20966;-64
2022/02/03 07:21:47;;;;;;;1.47;1.37;;;6.40;98.00;;;;;;5112075;28;20888;-65
2022/02/03 07:24:14;;;;;;;1.93;1.83;;;6.50;98.00;;;;;;5112206;28;20829;-65
2022/02/03 07:26:41;;;;;;;1.50;1.40;;;6.50;98.00;;;;;;5111990;28;20941;-64
2022/02/03 07:29:08;;;;;;;1.63;1.53;;;6.60;98.00;;;;;;5111954;28;20544;-66
2022/02/03 07:31:35;;;;;;;1.40;1.30;;;6.60;98.00;;;;;;5111907;28;20501;-64
2022/02/03 07:34:09;;;;;;;1.30;1.10;;;6.70;98.00;;;;;;5111835;28;20496;-64
2022/02/03 07:36:36;;;;;;;2.27;2.13;;;6.80;98.00;;;;;;5111981;28;20527;-64
2022/02/03 07:39:05;;;;;;;1.27;1.20;;;6.70;98.00;;;;;;5111832;28;20518;-64
2022/02/03 07:41:33;;;;;;;3.07;1.93;;;6.70;98.00;;;;;;5111650;28;20454;-64
2022/02/03 07:44:00;;;;;;;2.33;1.43;;;6.70;98.00;;;;;;5114906;28;20963;-64
2022/02/03 07:46:30;;;;;;;2.90;1.30;;;6.60;98.00;;;;;;5114804;28;20469;-64
2022/02/03 07:48:57;;;;;;;1.20;1.00;;;6.60;98.00;;;;;;5116121;28;20454;-64
2022/02/03 07:51:25;;;;;;;1.20;1.20;;;6.70;98.00;;;;;;5114712;28;20569;-64
2022/02/03 07:53:52;;;;;;;1.83;1.73;;;6.70;98.00;;;;;;5114715;28;20546;-64
2022/02/03 07:56:21;;;;;;;2.27;1.50;;;6.80;98.00;;;;;;5115639;28;20571;-64
2022/02/03 07:58:48;;;;;;;2.97;2.17;;;6.80;98.00;;;;;;5115823;27;20520;-66
2022/02/03 08:01:15;;;;;;;1.40;1.30;;;6.80;98.00;;;;;;5115796;28;20530;-65
2022/02/03 08:03:44;;;;;;;1.20;1.20;;;6.90;98.00;;;;;;5115927;28;20819;-64
2022/02/03 08:06:21;;;;;;;1.30;1.30;;;6.90;98.00;;;;;;5115558;28;21049;-64
2022/02/03 08:08:51;;;;;;;3.40;1.97;;;7.00;98.00;;;;;;5115027;28;20954;-65
2022/02/03 08:11:25;;;;;;;1.30;1.30;;;7.00;98.00;;;;;;5113544;28;20455;-65
2022/02/03 08:13:56;;;;;;;1.30;1.20;;;7.20;98.00;;;;;;5114803;28;20460;-65
2022/02/03 08:16:28;;;;;;;1.47;1.30;;;7.20;98.00;;;;;;5115508;28;20463;-64
2022/02/03 08:19:02;;;;;;;1.30;1.20;;;7.30;98.00;;;;;;5115495;28;20488;-64
2022/02/03 08:21:31;;;;;;;1.30;1.27;;;7.30;98.00;;;;;;5115313;28;20468;-65
2022/02/03 08:24:18;;;;;;;1.90;1.60;;;7.50;98.00;;;;;;5114356;28;20468;-65
2022/02/03 08:32:16;;;;;;;1.20;1.20;;;7.80;98.00;;;;;;5107748;28;20478;-63
2022/02/03 08:35:08;;;;;;;1.20;1.20;;;7.80;98.00;;;;;;5115131;28;20508;-64
2022/02/03 08:37:44;;;;;;;1.47;1.43;;;7.70;98.00;;;;;;5101723;28;20637;-65
2022/02/03 08:40:20;;;;;;;1.43;1.33;;;7.90;98.00;;;;;;5110094;28;20539;-65
2022/02/03 08:42:50;;;;;;;2.70;2.03;;;8.00;98.00;;;;;;5102424;28;20523;-65
2022/02/03 08:45:17;;;;;;;1.30;1.20;;;7.90;98.00;;;;;;5095110;28;21014;-66
2022/02/03 08:47:46;;;;;;;1.20;1.20;;;8.10;98.00;;;;;;5106523;28;20497;-66
2022/02/03 08:50:14;;;;;;;1.20;1.20;;;8.20;98.00;;;;;;5093833;28;20881;-66
2022/02/03 08:52:52;;;;;;;1.77;1.20;;;8.20;98.00;;;;;;5096242;28;20478;-66
2022/02/03 08:55:31;;;;;;;2.47;2.27;;;8.30;98.00;;;;;;5103255;28;20506;-67
2022/02/03 08:58:28;;;;;;;1.50;1.50;;;8.20;98.00;;;;;;5093213;28;20481;-66
2022/02/03 09:30:04;;;;;;;1.50;1.47;;;9.10;98.00;;;;;;5094678;28;20828;-68
2022/02/03 09:35:18;;;;;;;1.40;1.20;;;9.20;98.00;;;;;;5109380;28;20550;-67
2022/02/03 09:38:09;;;;;;;1.50;1.20;;;9.20;98.00;;;;;;5099663;28;20459;-69
2022/02/03 09:40:59;;;;;;;1.20;1.17;;;9.40;98.00;;;;;;5097775;28;20531;-68
2022/02/03 09:57:37;;;;;;;1.40;1.30;;;9.30;98.00;;;;;;5126332;28;20463;-67
2022/02/03 10:00:41;;;;;;;1.30;1.20;;;9.30;98.00;;;;;;5129834;28;20810;-67
2022/02/03 10:03:14;;;;;;;1.20;1.10;;;9.50;98.00;;;;;;5130006;28;20450;-67
2022/02/03 10:05:56;;;;;;;1.10;0.90;;;9.60;98.00;;;;;;5129769;27;20463;-67
2022/02/03 10:08:23;;;;;;;1.67;1.33;;;9.60;98.00;;;;;;5129709;28;20452;-67
2022/02/03 10:10:51;;;;;;;1.37;1.33;;;9.60;98.00;;;;;;5129759;28;20458;-67
2022/02/03 10:13:20;;;;;;;1.60;1.23;;;9.70;98.00;;;;;;5129675;28;20514;-68
2022/02/03 10:15:47;;;;;;;1.40;1.20;;;9.80;98.00;;;;;;5129489;27;20478;-67
2022/02/03 10:18:22;;;;;;;1.40;1.30;;;9.90;98.00;;;;;;5129465;28;20948;-67
2022/02/03 10:20:50;;;;;;;1.10;1.00;;;10.10;98.00;;;;;;5129447;28;20449;-68
2022/02/03 10:23:22;;;;;;;1.73;1.67;;;10.10;98.00;;;;;;5129303;28;20442;-67
2022/02/03 10:25:55;;;;;;;1.20;1.10;;;10.20;98.00;;;;;;5129345;28;20962;-67
2022/02/03 10:28:22;;;;;;;7.77;1.80;;;10.30;98.00;;;;;;5129290;28;20533;-68
2022/02/03 10:30:52;;;;;;;1.20;1.20;;;10.40;98.00;;;;;;5127748;28;20506;-68
2022/02/03 10:33:30;;;;;;;1.77;1.67;;;10.40;98.00;;;;;;5129228;28;20579;-68
2022/02/03 10:36:03;;;;;;;1.40;1.20;;;10.30;98.00;;;;;;5129238;28;21032;-66
2022/02/03 10:38:54;;;;;;;1.57;1.50;;;10.40;98.00;;;;;;5129304;27;20461;-67
2022/02/03 10:47:33;;;;;;;1.20;1.10;;;10.30;98.00;;;;;;5086892;28;20450;-67
2022/02/03 10:50:16;;;;;;;1.20;1.00;;;10.30;98.00;;;;;;5124677;28;20489;-67
2022/02/03 11:04:29;;;;;;;2.40;1.73;;;11.00;98.00;;;;;;5096513;28;20463;-68
2022/02/03 11:07:03;;;;;;;1.30;1.30;;;11.10;98.00;;;;;;5094396;28;20829;-68
2022/02/03 11:09:45;;;;;;;1.60;1.27;;;11.30;98.00;;;;;;5094701;28;20456;-68
2022/02/03 11:12:16;;;;;;;1.30;1.20;;;11.30;98.00;;;;;;5094571;28;20456;-68
2022/02/03 11:14:45;;;;;;;1.20;1.10;;;11.30;98.00;;;;;;5094784;28;20487;-66
2022/02/03 11:17:15;;;;;;;1.53;1.10;;;11.30;98.00;;;;;;5094361;28;20460;-67
2022/02/03 11:19:47;;;;;;;1.73;1.50;;;11.30;98.00;;;;;;5094742;28;20542;-67
2022/02/03 11:22:21;;;;;;;1.60;1.50;;;11.40;98.00;;;;;;5094386;28;20540;-66
2022/02/03 11:25:00;;;;;;;2.17;1.90;;;11.40;98.00;;;;;;5094167;28;21271;-67
2022/02/03 11:27:36;;;;;;;1.57;1.30;;;11.40;98.00;;;;;;5093911;28;20530;-67
2022/02/03 11:33:35;;;;;;;1.37;1.10;;;11.30;98.00;;;;;;5093978;28;20579;-68
2022/02/03 11:50:53;;;;;;;1.30;1.10;;;11.10;98.00;;;;;;5088190;28;20877;-69
2022/02/03 11:53:44;;;;;;;1.20;1.00;;;11.00;98.00;;;;;;5092647;28;20986;-66
2022/02/03 11:56:53;;;;;;;2.47;1.10;;;11.10;98.00;;;;;;5093681;28;20450;-67
2022/02/03 12:02:47;;;;;;;1.20;1.10;;;11.10;98.00;;;;;;5093342;28;20450;-67
2022/02/03 12:17:31;;;;;;;1.40;1.20;;;11.50;98.00;;;;;;5092142;28;20436;-66
2022/02/03 12:20:14;;;;;;;1.43;1.40;;;11.60;98.00;;;;;;5093293;28;20456;-66
2022/02/03 12:23:00;;;;;;;2.37;1.77;;;11.80;98.00;;;;;;5093282;28;20460;-67
2022/02/03 12:25:43;;;;;;;1.20;1.00;;;11.80;98.00;;;;;;5093174;28;20456;-67
2022/02/03 12:28:23;;;;;;;1.20;1.00;;;12.00;98.00;;;;;;5093226;28;20843;-67
2022/02/03 12:31:13;;;;;;;1.60;1.13;;;12.00;98.00;;;;;;5093271;28;20926;-66
2022/02/03 12:39:13;;;;;;;1.23;1.07;;;12.10;98.00;;;;;;5093316;28;20462;-67
2022/02/03 12:41:44;;;;;;;1.20;1.20;;;12.10;98.00;;;;;;5092742;28;20453;-67
2022/02/03 12:44:19;;;;;;;1.20;1.00;;;12.10;98.00;;;;;;5092884;28;20459;-67
2022/02/03 12:46:47;;;;;;;1.90;1.40;;;12.20;98.00;;;;;;5092758;28;20531;-67
2022/02/03 12:49:14;;;;;;;1.37;1.10;;;12.40;98.00;;;;;;5092492;28;20489;-65
2022/02/03 12:51:42;;;;;;;1.30;1.10;;;12.40;98.00;;;;;;5092726;28;20463;-66
2022/02/03 12:54:10;;;;;;;1.20;1.00;;;12.50;98.00;;;;;;5092313;28;20571;-66
2022/02/03 12:56:37;;;;;;;1.20;1.00;;;12.50;98.00;;;;;;5091929;28;20461;-67
2022/02/03 12:59:07;;;;;;;1.20;1.03;;;12.50;98.00;;;;;;5092535;28;20489;-66
2022/02/03 13:01:38;;;;;;;1.77;1.03;;;12.40;98.00;;;;;;5092248;28;20496;-67
2022/02/03 13:04:11;;;;;;;2.03;1.57;;;12.40;98.00;;;;;;5092157;28;20875;-66
2022/02/03 13:06:42;;;;;;;1.20;1.00;;;12.40;98.00;;;;;;5092172;28;20457;-67
2022/02/03 13:09:11;;;;;;;1.20;1.10;;;12.30;98.00;;;;;;5092216;28;20486;-66
2022/02/03 13:11:43;;;;;;;1.20;1.10;;;12.70;98.00;;;;;;5092045;28;20449;-66
2022/02/03 13:14:23;;;;;;;1.20;1.10;;;13.20;98.00;;;;;;5091860;28;20492;-67
2022/02/03 13:16:56;;;;;;;1.20;1.10;;;13.80;98.00;;;;;;5092061;28;20531;-67
2022/02/03 13:19:30;;;;;;;1.20;1.00;;;13.90;98.00;;;;;;5092012;28;20452;-68
2022/02/03 13:22:11;;;;;;;1.20;1.13;;;13.70;98.00;;;;;;5091763;28;20458;-67
2022/02/03 13:27:27;;;;;;;1.20;1.10;;;13.10;98.00;;;;;;5090826;28;20479;-67
2022/02/03 13:30:03;;;;;;;1.20;1.00;;;13.00;98.00;;;;;;5091393;28;20458;-66
2022/02/03 13:32:37;;;;;;;1.20;1.10;;;12.80;98.00;;;;;;5091502;28;20457;-67
2022/02/03 13:35:20;;;;;;;1.20;1.00;;;12.70;98.00;;;;;;5091612;28;20489;-66
2022/02/03 13:37:56;;;;;;;1.20;1.00;;;12.50;98.00;;;;;;5091550;28;20464;-67
2022/02/03 13:40:27;;;;;;;1.50;1.33;;;12.30;98.00;;;;;;5090281;28;20485;-66
2022/02/03 13:43:01;;;;;;;1.20;1.00;;;12.20;98.00;;;;;;5091933;28;20491;-67
2022/02/03 13:45:28;;;;;;;7.03;2.13;;;12.10;98.00;;;;;;5091867;28;20471;-68
2022/02/03 13:47:55;;;;;;;1.50;1.30;;;11.90;98.00;;;;;;5091899;28;20902;-68
2022/02/03 13:50:26;;;;;;;1.50;1.20;;;11.70;98.00;;;;;;5091793;28;20875;-67
2022/02/03 13:52:59;;;;;;;1.20;1.00;;;11.70;98.00;;;;;;5091988;28;20468;-67
2022/02/03 14:15:22;;;;;;;1.20;1.10;;;11.50;98.00;;;;;;5048895;28;20476;-67
2022/02/03 14:18:11;;;;;;;1.30;1.23;;;11.40;98.00;;;;;;5048898;28;20499;-67
2022/02/03 14:20:47;;;;;;;1.20;1.03;;;11.50;98.00;;;;;;5069149;28;20488;-66
2022/02/03 14:28:45;;;;;;;1.20;1.00;;;11.60;98.00;;;;;;5090415;28;20444;-66
2022/02/03 14:31:12;;;;;;;1.47;1.30;;;11.60;98.00;;;;;;5090054;28;20798;-67
2022/02/03 14:33:41;;;;;;;1.20;1.10;;;11.60;98.00;;;;;;5091223;28;21000;-67
2022/02/03 14:36:11;;;;;;;1.20;0.97;;;11.50;98.00;;;;;;5091148;28;20457;-67
2022/02/03 14:38:48;;;;;;;1.20;1.00;;;11.50;98.00;;;;;;5091277;28;20459;-66
2022/02/03 14:41:23;;;;;;;1.40;1.10;;;11.50;98.00;;;;;;5094478;28;20862;-67
2022/02/03 14:43:52;;;;;;;2.60;1.27;;;11.40;98.00;;;;;;5095092;28;20460;-66
2022/02/03 14:46:19;;;;;;;1.30;1.10;;;11.30;98.00;;;;;;5077028;28;20458;-67
2022/02/03 14:48:50;;;;;;;1.20;1.00;;;11.30;98.00;;;;;;5095104;28;20456;-66
2022/02/03 14:51:22;;;;;;;1.20;1.00;;;11.30;98.00;;;;;;5094786;28;20488;-66
2022/02/03 14:53:56;;;;;;;1.20;1.00;;;11.20;98.00;;;;;;5094707;28;20457;-67
2022/02/03 14:59:11;;;;;;;1.30;1.10;;;11.20;98.00;;;;;;5094971;28;20452;-67
2022/02/03 15:01:39;;;;;;;1.20;1.10;;;11.10;98.00;;;;;;5093602;28;20450;-68
2022/02/03 15:04:11;;;;;;;1.50;1.20;;;11.00;98.00;;;;;;5094786;28;20843;-67
2022/02/03 15:06:41;;;;;;;1.20;1.00;;;11.00;98.00;;;;;;5093705;28;20518;-68
2022/02/03 15:09:18;;;;;;;1.20;1.00;;;10.90;98.00;;;;;;5094940;28;20543;-67
2022/02/03 15:12:01;;;;;;;1.40;1.40;;;10.80;98.00;;;;;;5094790;28;20825;-66
2022/02/03 15:14:30;;;;;;;1.20;1.10;;;10.80;98.00;;;;;;5094693;28;20560;-67
2022/02/03 15:16:58;;;;;;;1.20;1.00;;;10.70;98.00;;;;;;5094490;28;20995;-67
2022/02/03 15:19:25;;;;;;;1.30;1.30;;;10.70;98.00;;;;;;5094603;28;20463;-67
2022/02/03 15:21:52;;;;;;;1.20;1.20;;;10.60;98.00;;;;;;5094579;28;20858;-67
2022/02/03 15:24:19;;;;;;;1.20;1.10;;;10.50;98.00;;;;;;5094547;28;20551;-66
2022/02/03 15:26:46;;;;;;;1.30;1.10;;;10.40;98.00;;;;;;5094429;28;20491;-67
2022/02/03 15:29:13;;;;;;;2.33;1.33;;;10.40;98.00;;;;;;5094121;28;20540;-67
2022/02/03 15:31:42;;;;;;;1.20;1.00;;;10.40;98.00;;;;;;5094124;28;20452;-67
2022/02/03 15:34:13;;;;;;;1.20;1.00;;;10.30;98.00;;;;;;5093721;28;21445;-67
2022/02/03 15:36:47;;;;;;;1.20;1.07;;;10.30;98.00;;;;;;5094739;28;20863;-67
2022/02/03 15:39:20;;;;;;;1.20;1.10;;;10.20;98.00;;;;;;5093414;28;20457;-68
2022/02/03 15:41:48;;;;;;;1.20;1.00;;;10.20;98.00;;;;;;5107786;28;20447;-68
2022/02/03 15:44:16;;;;;;;1.20;1.00;;;10.10;98.00;;;;;;5102193;28;20483;-67
2022/02/03 15:46:57;;;;;;;1.20;1.20;;;10.00;98.00;;;;;;5110122;28;20491;-67
2022/02/03 15:49:46;;;;;;;1.20;1.10;;;10.00;98.00;;;;;;5108290;28;20483;-68
2022/02/03 16:01:02;;;;;;;1.30;1.20;;;9.70;98.00;;;;;;5069932;28;20541;-67
2022/02/03 16:03:35;;;;;;;1.20;1.00;;;9.70;98.00;;;;;;5086891;28;20464;-68
2022/02/03 16:17:02;;;;;;;1.20;1.00;;;9.50;98.00;;;;;;5110773;28;20443;-69
2022/02/03 16:19:37;;;;;;;2.60;1.20;;;9.40;98.00;;;;;;5108272;28;20456;-67
2022/02/03 16:22:14;;;;;;;1.20;1.00;;;9.30;98.00;;;;;;5093111;28;20836;-67
2022/02/03 16:24:48;;;;;;;1.20;1.07;;;9.10;98.00;;;;;;5093299;28;20517;-67
2022/02/03 16:41:18;;;;;;;1.30;1.23;;;8.80;98.00;;;;;;5093062;28;21026;-67
2022/02/03 16:52:35;;;;;;;1.30;1.30;;;8.60;98.00;;;;;;5050253;28;20843;-66
2022/02/03 16:55:11;;;;;;;1.20;1.20;;;8.60;98.00;;;;;;5079331;28;20513;-67
2022/02/03 16:57:38;;;;;;;1.20;1.00;;;8.50;98.00;;;;;;5092326;28;20458;-67
2022/02/03 17:00:12;;;;;;;1.20;1.00;;;8.50;98.00;;;;;;5091448;28;20463;-67
2022/02/03 17:02:39;;;;;;;1.20;1.00;;;8.50;98.00;;;;;;5088248;28;20816;-66
2022/02/03 17:05:07;;;;;;;1.20;1.00;;;8.50;98.00;;;;;;5090691;28;20459;-68
2022/02/03 17:07:36;;;;;;;1.20;1.00;;;8.40;98.00;;;;;;5090941;28;20471;-67
2022/02/03 17:10:04;;;;;;;1.20;1.00;;;8.40;98.00;;;;;;5091281;28;20544;-67
2022/02/03 17:12:31;;;;;;;1.20;1.00;;;8.30;98.00;;;;;;5090681;28;20535;-68
2022/02/03 17:14:59;;;;;;;1.30;1.10;;;8.40;98.00;;;;;;5106029;28;20957;-68
2022/02/03 17:17:26;;;;;;;1.37;1.23;;;8.20;98.00;;;;;;5112500;28;20451;-69
2022/02/03 17:19:57;;;;;;;2.03;1.63;;;8.20;98.00;;;;;;5111300;28;20454;-67
2022/02/03 17:22:30;;;;;;;2.40;1.50;;;8.10;98.00;;;;;;5111002;28;20452;-68
2022/02/03 17:25:05;;;;;;;1.20;1.00;;;8.10;98.00;;;;;;5112426;28;20448;-67
2022/02/03 17:27:38;;;;;;;1.20;1.10;;;7.90;98.00;;;;;;5112142;28;20524;-67
2022/02/03 17:30:11;;;;;;;1.20;1.10;;;7.80;98.00;;;;;;5112353;28;20489;-67
2022/02/03 17:52:38;;;;;;;1.20;1.00;;;7.70;98.00;;;;;;5112260;28;20790;-68
2022/02/03 18:09:33;;;;;;;1.70;1.43;;;7.50;98.00;;;;;;5112101;28;20493;-67
2022/02/03 18:18:04;;;;;;;1.30;1.00;;;7.40;98.00;;;;;;5095722;28;20532;-68
2022/02/03 18:26:37;;;;;;;1.30;1.20;;;7.30;98.00;;;;;;5095490;28;20964;-67
2022/02/03 18:45:43;;;;;;;1.20;1.00;;;7.30;98.00;;;;;;5095166;28;20957;-67
2022/02/03 18:46:30;;;;;;;1.37;1.33;;;7.10;98.00;;;;;;5095055;28;20449;-67
2022/02/03 18:51:39;;;;;;;1.67;1.53;;;7.00;98.00;;;;;;5095001;28;20440;-68
2022/02/03 18:54:16;;;;;;;1.20;1.00;;;7.00;98.00;;;;;;5094705;28;20474;-67
2022/02/03 18:56:51;;;;;;;1.20;1.00;;;7.00;98.00;;;;;;5094104;28;20486;-68
2022/02/03 18:59:36;;;;;;;1.20;1.03;;;7.00;98.00;;;;;;5094130;28;20481;-67
2022/02/03 19:02:34;;;;;;;1.30;1.00;;;7.10;98.00;;;;;;5093971;28;20486;-67
2022/02/03 19:27:19;;;;;;;1.20;1.00;;;7.10;98.00;;;;;;5070673;28;20469;-67
2022/02/03 19:58:04;;;;;;;1.83;1.80;;;7.10;98.00;;;;;;5093458;28;20535;-67
2022/02/03 20:05:51;;;;;;;1.20;1.10;;;7.00;98.00;;;;;;5093472;28;20439;-66
2022/02/03 20:08:26;;;;;;;1.20;1.20;;;7.10;98.00;;;;;;5093428;28;20462;-67
2022/02/03 20:10:54;;;;;;;1.20;1.10;;;7.10;98.00;;;;;;5093091;28;20467;-67
2022/02/03 20:13:21;;;;;;;1.20;1.10;;;7.00;98.00;;;;;;5093170;28;20486;-67
2022/02/03 20:15:49;;;;;;;2.50;1.83;;;7.00;98.00;;;;;;5093402;28;20512;-67
2022/02/03 20:18:19;;;;;;;1.40;1.13;;;7.00;98.00;;;;;;5093277;28;21032;-67
2022/02/03 20:20:46;;;;;;;1.20;1.00;;;7.10;98.00;;;;;;5093300;28;20448;-67
2022/02/03 20:23:16;;;;;;;1.50;1.40;;;7.10;98.00;;;;;;5093029;28;20456;-67
2022/02/03 20:25:49;;;;;;;1.20;1.00;;;7.10;98.00;;;;;;5093170;28;20515;-67
2022/02/03 20:28:21;;;;;;;1.30;1.27;;;7.10;98.00;;;;;;5093131;28;20458;-67
2022/02/03 20:30:49;;;;;;;1.73;1.40;;;7.00;98.00;;;;;;5093184;28;20588;-68
2022/02/03 20:33:16;;;;;;;1.77;1.30;;;6.80;98.00;;;;;;5092922;28;20513;-67
2022/02/03 20:35:49;;;;;;;1.23;1.10;;;6.70;98.00;;;;;;5092760;28;20493;-67
2022/02/03 20:38:21;;;;;;;1.60;1.43;;;6.60;98.00;;;;;;5091927;28;20494;-67
2022/02/03 20:40:51;;;;;;;1.50;1.30;;;6.60;98.00;;;;;;5092875;28;20548;-67
2022/02/03 20:43:21;;;;;;;5.30;1.50;;;6.60;98.00;;;;;;5092594;28;20539;-67
2022/02/03 20:45:49;;;;;;;1.93;1.20;;;6.50;98.00;;;;;;5092979;28;20462;-67
2022/02/03 20:48:16;;;;;;;1.67;1.10;;;6.50;98.00;;;;;;5092988;28;20535;-67
2022/02/03 20:50:46;;;;;;;1.57;1.20;;;6.60;98.00;;;;;;5092904;28;20460;-67
2022/02/03 20:53:14;;;;;;;1.20;1.10;;;6.60;98.00;;;;;;5092606;28;20463;-67
2022/02/03 20:55:42;;;;;;;1.33;1.10;;;6.60;98.00;;;;;;5092885;28;20898;-67
2022/02/03 20:58:14;;;;;;;1.73;1.33;;;6.60;98.00;;;;;;5092641;28;20456;-67
2022/02/03 21:00:52;;;;;;;2.47;1.60;;;6.70;98.00;;;;;;5092521;28;20468;-67
2022/02/03 21:03:24;;;;;;;1.20;1.00;;;6.60;98.00;;;;;;5092447;28;20520;-67
2022/02/03 21:05:52;;;;;;;1.30;1.10;;;6.60;98.00;;;;;;5092319;28;20533;-67
2022/02/03 21:08:29;;;;;;;1.50;1.40;;;6.60;98.00;;;;;;5091649;28;20844;-67
2022/02/03 21:10:56;;;;;;;1.50;1.20;;;6.60;98.00;;;;;;5092427;28;21015;-67
2022/02/03 21:13:23;;;;;;;1.70;1.40;;;6.50;98.00;;;;;;5092169;28;20462;-67
2022/02/03 21:15:53;;;;;;;1.20;1.13;;;6.50;98.00;;;;;;5091964;28;20513;-67
2022/02/03 21:18:21;;;;;;;1.17;1.07;;;6.40;98.00;;;;;;5092221;28;20477;-67
2022/02/03 21:20:50;;;;;;;1.50;1.17;;;6.20;98.00;;;;;;5092222;28;20463;-67
2022/02/03 21:23:19;;;;;;;1.57;1.23;;;6.20;98.00;;;;;;5091883;28;20466;-67
2022/02/03 21:26:06;;;;;;;2.13;1.40;;;6.20;98.00;;;;;;5091797;28;20580;-67
2022/02/03 21:28:36;;;;;;;2.20;2.00;;;6.20;98.00;;;;;;5091860;28;20459;-67
2022/02/03 21:31:06;;;;;;;1.50;1.43;;;6.10;98.00;;;;;;5091991;28;20878;-67